Time;durP1;ratioP1;P1;durP2;ratioP2;P2;SDS_P1;SDS_P2;PMS_P1;PMS_P2;Temp;Humidity;BMP_temperature;BMP_pressure;BME280_temperature;BME280_humidity;BME280_pressure;Samples;Min_cycle;Max_cycle;Signal;HPM_P1;HPM_P2
2022/04/07 00:01:22;;;;;;;0.20;0.20;;;10.00;1.00;;;;;;5074228;28;20117;-69
2022/04/07 00:03:48;;;;;;;0.32;0.15;;;10.00;1.00;;;;;;5074641;28;20056;-69
2022/04/07 00:06:14;;;;;;;0.25;0.25;;;9.90;1.00;;;;;;5074743;28;20391;-69
2022/04/07 00:08:40;;;;;;;0.00;0.00;;;9.80;1.00;;;;;;5074552;28;20033;-69
2022/04/07 00:11:08;;;;;;;0.20;0.20;;;9.70;1.00;;;;;;5073498;28;20398;-69
2022/04/07 00:13:34;;;;;;;0.30;0.30;;;9.70;1.00;;;;;;5074729;28;20033;-69
2022/04/07 00:16:00;;;;;;;0.10;0.10;;;9.70;1.00;;;;;;5074188;28;20044;-69
2022/04/07 00:18:28;;;;;;;0.10;0.10;;;9.80;1.00;;;;;;5076311;28;20120;-69
2022/04/07 00:20:54;;;;;;;0.10;0.10;;;9.70;1.00;;;;;;5078654;28;20045;-69
2022/04/07 00:23:21;;;;;;;0.10;0.10;;;9.60;1.00;;;;;;5079388;28;20082;-69
2022/04/07 00:25:47;;;;;;;4.38;1.52;;;9.60;1.00;;;;;;5078496;28;20041;-69
2022/04/07 00:28:13;;;;;;;0.30;0.30;;;9.50;1.00;;;;;;5078778;28;20036;-69
2022/04/07 00:30:39;;;;;;;0.40;0.40;;;9.40;1.00;;;;;;5078671;28;20040;-69
2022/04/07 00:33:09;;;;;;;0.10;0.10;;;9.40;1.00;;;;;;5078826;28;20040;-69
2022/04/07 00:35:37;;;;;;;0.40;0.30;;;9.40;1.00;;;;;;5078313;28;20045;-69
2022/04/07 00:38:04;;;;;;;0.20;0.20;;;9.40;1.00;;;;;;5078574;28;20127;-69
2022/04/07 00:40:30;;;;;;;0.40;0.40;;;9.40;1.00;;;;;;5078662;28;20036;-69
2022/04/07 00:42:56;;;;;;;0.63;0.63;;;9.30;1.00;;;;;;5078480;28;20045;-69
2022/04/07 00:45:23;;;;;;;0.10;0.10;;;9.30;1.00;;;;;;5077974;28;20040;-70
2022/04/07 00:47:51;;;;;;;0.20;0.20;;;9.30;1.00;;;;;;5078101;28;20048;-69
2022/04/07 00:50:19;;;;;;;1.45;0.55;;;9.30;1.00;;;;;;5078513;28;20033;-69
2022/04/07 00:52:49;;;;;;;0.15;0.15;;;9.30;1.00;;;;;;5078538;28;20499;-69
2022/04/07 00:55:15;;;;;;;1.55;0.85;;;9.20;1.00;;;;;;5078086;28;20152;-69
2022/04/07 00:57:42;;;;;;;0.30;0.30;;;9.10;1.00;;;;;;5077819;28;20036;-69
2022/04/07 01:00:10;;;;;;;0.15;0.15;;;9.20;1.00;;;;;;5078242;28;20037;-69
2022/04/07 01:02:36;;;;;;;0.35;0.35;;;9.10;1.00;;;;;;5077967;28;20121;-69
2022/04/07 01:05:04;;;;;;;0.28;0.28;;;9.10;1.00;;;;;;5077461;28;20041;-69
2022/04/07 01:07:32;;;;;;;0.25;0.25;;;9.10;1.00;;;;;;5077712;28;20037;-69
2022/04/07 01:10:01;;;;;;;0.75;0.75;;;9.10;1.00;;;;;;5077571;28;20040;-69
2022/04/07 01:12:26;;;;;;;0.10;0.10;;;9.10;1.00;;;;;;5077297;28;20047;-69
2022/04/07 01:15:01;;;;;;;0.68;0.68;;;9.10;1.00;;;;;;5077346;28;20032;-69
2022/04/07 01:17:30;;;;;;;0.30;0.22;;;9.10;1.00;;;;;;5077604;28;20044;-69
2022/04/07 01:19:56;;;;;;;0.40;0.40;;;9.00;1.00;;;;;;5077101;28;20491;-69
2022/04/07 01:22:23;;;;;;;0.20;0.20;;;9.00;1.00;;;;;;5077322;28;20097;-69
2022/04/07 01:24:49;;;;;;;0.30;0.17;;;9.10;1.00;;;;;;5077382;28;20032;-69
2022/04/07 01:27:16;;;;;;;0.17;0.17;;;9.10;1.00;;;;;;5077146;28;20043;-69
2022/04/07 01:29:43;;;;;;;0.00;0.00;;;9.10;1.00;;;;;;5076628;28;20047;-69
2022/04/07 01:32:14;;;;;;;0.40;0.40;;;9.20;1.00;;;;;;5077158;28;20044;-69
2022/04/07 01:34:41;;;;;;;0.10;0.10;;;9.20;1.00;;;;;;5077137;28;20499;-69
2022/04/07 01:37:08;;;;;;;0.10;0.10;;;9.20;1.00;;;;;;5076803;28;20407;-69
2022/04/07 01:39:36;;;;;;;0.10;0.10;;;9.20;1.00;;;;;;5077590;28;20084;-69
2022/04/07 01:42:03;;;;;;;4.00;0.90;;;9.20;1.00;;;;;;5077057;28;20044;-69
2022/04/07 01:44:30;;;;;;;0.10;0.10;;;9.20;1.00;;;;;;5077065;28;20066;-69
2022/04/07 01:46:56;;;;;;;0.00;0.00;;;9.20;1.00;;;;;;5077223;28;20045;-69
2022/04/07 01:49:23;;;;;;;0.10;0.10;;;9.10;1.00;;;;;;5076954;28;20134;-69
2022/04/07 01:51:50;;;;;;;0.10;0.10;;;9.20;1.00;;;;;;5076869;28;20040;-69
2022/04/07 01:54:16;;;;;;;1.27;0.90;;;9.20;1.00;;;;;;5076559;28;20044;-69
2022/04/07 01:56:46;;;;;;;0.20;0.20;;;9.00;1.00;;;;;;5076360;28;20399;-69
2022/04/07 01:59:13;;;;;;;0.20;0.20;;;9.00;1.00;;;;;;5076852;28;20045;-69
2022/04/07 02:01:39;;;;;;;0.30;0.30;;;9.00;1.00;;;;;;5077120;28;20036;-69
2022/04/07 02:04:05;;;;;;;0.10;0.10;;;9.00;1.00;;;;;;5077050;28;20052;-69
2022/04/07 02:06:31;;;;;;;0.25;0.25;;;8.90;1.00;;;;;;5076879;28;20153;-69
2022/04/07 02:08:57;;;;;;;0.20;0.20;;;8.80;1.00;;;;;;5077142;28;20501;-69
2022/04/07 02:11:23;;;;;;;0.10;0.10;;;8.80;1.00;;;;;;5076509;28;20035;-69
2022/04/07 02:13:50;;;;;;;0.10;0.10;;;8.70;1.00;;;;;;5076323;28;20045;-69
2022/04/07 02:16:16;;;;;;;0.10;0.10;;;8.60;1.00;;;;;;5076374;28;20044;-69
2022/04/07 02:18:42;;;;;;;0.20;0.20;;;8.60;1.00;;;;;;5076397;28;20101;-69
2022/04/07 02:21:08;;;;;;;0.10;0.10;;;8.60;1.00;;;;;;5076755;28;20048;-69
2022/04/07 02:23:41;;;;;;;0.10;0.10;;;8.60;1.00;;;;;;5076973;28;20032;-69
2022/04/07 02:26:18;;;;;;;0.30;0.30;;;8.50;1.00;;;;;;5076425;28;20095;-69
2022/04/07 02:28:44;;;;;;;0.10;0.10;;;8.40;1.00;;;;;;5076555;28;20048;-69
2022/04/07 02:31:11;;;;;;;0.10;0.10;;;8.40;1.00;;;;;;5076059;28;20075;-69
2022/04/07 02:33:37;;;;;;;0.43;0.20;;;8.30;1.00;;;;;;5076418;28;20079;-69
2022/04/07 02:36:04;;;;;;;0.10;0.10;;;8.40;1.00;;;;;;5076275;28;20051;-69
2022/04/07 02:38:31;;;;;;;0.20;0.20;;;8.40;1.00;;;;;;5076285;28;20071;-69
2022/04/07 02:40:57;;;;;;;0.20;0.20;;;8.50;1.00;;;;;;5075799;28;20082;-69
2022/04/07 02:43:23;;;;;;;0.10;0.10;;;8.50;1.00;;;;;;5075492;28;20562;-69
2022/04/07 02:45:49;;;;;;;0.20;0.20;;;8.60;1.00;;;;;;5076033;28;20071;-69
2022/04/07 02:48:16;;;;;;;0.00;0.00;;;8.70;1.00;;;;;;5076047;28;20039;-69
2022/04/07 02:50:43;;;;;;;0.05;0.05;;;8.70;1.00;;;;;;5076198;28;20041;-69
2022/04/07 02:53:09;;;;;;;0.10;0.10;;;8.70;1.00;;;;;;5076003;28;20047;-69
2022/04/07 02:55:35;;;;;;;0.40;0.40;;;8.80;1.00;;;;;;5076251;28;20075;-69
2022/04/07 02:58:01;;;;;;;0.15;0.15;;;8.80;1.00;;;;;;5076170;28;20443;-69
2022/04/07 03:00:27;;;;;;;0.10;0.10;;;8.80;1.00;;;;;;5075029;28;20111;-69
2022/04/07 03:02:53;;;;;;;0.70;0.30;;;8.80;1.00;;;;;;5075266;28;20051;-69
2022/04/07 03:05:19;;;;;;;0.30;0.30;;;8.80;1.00;;;;;;5075412;28;20399;-69
2022/04/07 03:07:44;;;;;;;0.10;0.10;;;8.80;1.00;;;;;;5075639;28;20044;-69
2022/04/07 03:10:11;;;;;;;0.10;0.10;;;8.80;1.00;;;;;;5075407;28;20060;-69
2022/04/07 03:12:38;;;;;;;0.10;0.10;;;8.80;1.00;;;;;;5075263;28;20045;-69
2022/04/07 03:15:07;;;;;;;0.50;0.50;;;8.80;1.00;;;;;;5075152;28;20040;-69
2022/04/07 03:17:33;;;;;;;0.10;0.10;;;8.70;1.00;;;;;;5075153;28;20048;-69
2022/04/07 03:20:00;;;;;;;0.22;0.22;;;8.80;1.00;;;;;;5075167;28;20040;-69
2022/04/07 03:22:26;;;;;;;0.25;0.25;;;8.80;1.00;;;;;;5075051;28;20575;-69
2022/04/07 03:24:52;;;;;;;0.38;0.30;;;8.80;1.00;;;;;;5074790;28;20064;-69
2022/04/07 03:27:18;;;;;;;0.25;0.25;;;8.70;1.00;;;;;;5075554;28;20037;-69
2022/04/07 03:29:44;;;;;;;0.10;0.10;;;8.70;1.00;;;;;;5074550;28;20036;-69
2022/04/07 03:32:10;;;;;;;0.20;0.20;;;8.60;1.00;;;;;;5074863;28;20032;-69
2022/04/07 03:34:39;;;;;;;0.15;0.15;;;8.50;1.00;;;;;;5075097;28;20040;-69
2022/04/07 03:37:06;;;;;;;0.17;0.15;;;8.40;1.00;;;;;;5074833;28;20076;-69
2022/04/07 03:39:33;;;;;;;0.10;0.10;;;8.40;1.00;;;;;;5074899;28;20040;-69
2022/04/07 03:41:59;;;;;;;0.17;0.17;;;8.30;1.00;;;;;;5074838;28;20051;-69
2022/04/07 03:44:25;;;;;;;0.10;0.10;;;8.30;1.00;;;;;;5074334;28;20123;-69
2022/04/07 03:46:51;;;;;;;0.40;0.15;;;8.30;1.00;;;;;;5074813;28;20572;-69
2022/04/07 03:49:17;;;;;;;0.13;0.13;;;8.40;1.00;;;;;;5074247;28;20114;-69
2022/04/07 03:51:43;;;;;;;0.30;0.30;;;8.30;1.00;;;;;;5074830;28;20064;-69
2022/04/07 03:54:09;;;;;;;0.20;0.20;;;8.30;1.00;;;;;;5074127;28;20047;-69
2022/04/07 03:56:35;;;;;;;0.10;0.10;;;8.30;1.00;;;;;;5074233;28;20036;-69
2022/04/07 03:59:02;;;;;;;0.10;0.10;;;8.40;1.00;;;;;;5073782;28;20475;-69
2022/04/07 04:01:29;;;;;;;0.30;0.30;;;8.40;1.00;;;;;;5051849;28;20044;-69
2022/04/07 04:03:55;;;;;;;0.10;0.10;;;8.30;1.00;;;;;;5066516;28;20053;-69
2022/04/07 04:06:21;;;;;;;0.10;0.10;;;8.40;1.00;;;;;;5074307;28;20044;-69
2022/04/07 04:08:48;;;;;;;0.20;0.20;;;8.40;1.00;;;;;;5073249;28;20042;-69
2022/04/07 04:11:14;;;;;;;0.20;0.20;;;8.40;1.00;;;;;;5059257;28;20116;-69
2022/04/07 04:13:40;;;;;;;0.10;0.10;;;8.40;1.00;;;;;;5074826;28;20036;-69
2022/04/07 04:16:08;;;;;;;0.73;0.22;;;8.40;1.00;;;;;;5062636;28;20068;-69
2022/04/07 04:18:34;;;;;;;0.10;0.10;;;8.50;1.00;;;;;;5056430;28;20120;-69
2022/04/07 04:21:01;;;;;;;0.15;0.15;;;8.60;1.00;;;;;;5072789;28;20037;-69
2022/04/07 04:23:27;;;;;;;0.40;0.40;;;8.50;1.00;;;;;;5054573;28;20052;-69
2022/04/07 04:25:53;;;;;;;0.10;0.10;;;8.60;1.00;;;;;;5054223;28;20407;-69
2022/04/07 04:28:19;;;;;;;0.10;0.10;;;8.60;1.00;;;;;;5053267;28;20066;-69
2022/04/07 04:30:45;;;;;;;0.10;0.10;;;8.60;1.00;;;;;;5067813;28;20486;-69
2022/04/07 04:33:11;;;;;;;0.10;0.10;;;8.60;1.00;;;;;;5074787;28;20051;-69
2022/04/07 04:35:37;;;;;;;0.10;0.10;;;8.70;1.00;;;;;;5074475;28;20041;-68
2022/04/07 04:38:03;;;;;;;0.00;0.00;;;8.70;1.00;;;;;;5072106;28;20044;-71
2022/04/07 04:40:29;;;;;;;0.30;0.30;;;8.70;1.00;;;;;;5055674;28;20116;-69
2022/04/07 04:42:54;;;;;;;0.10;0.10;;;8.70;1.00;;;;;;5054544;28;20041;-68
2022/04/07 04:45:20;;;;;;;0.20;0.20;;;8.60;1.00;;;;;;5053965;28;20043;-69
2022/04/07 04:47:46;;;;;;;3.15;0.63;;;8.60;1.00;;;;;;5054150;28;20044;-69
2022/04/07 04:50:13;;;;;;;0.10;0.10;;;8.60;1.00;;;;;;5053739;28;20063;-69
2022/04/07 04:52:39;;;;;;;0.20;0.20;;;8.60;1.00;;;;;;5054625;28;20098;-69
2022/04/07 04:55:06;;;;;;;0.10;0.10;;;8.70;1.00;;;;;;5064720;28;20562;-69
2022/04/07 04:57:32;;;;;;;0.20;0.20;;;8.60;1.00;;;;;;5074259;28;20494;-68
2022/04/07 04:59:58;;;;;;;0.25;0.25;;;8.60;1.00;;;;;;5074425;28;20040;-68
2022/04/07 05:02:24;;;;;;;0.35;0.35;;;8.70;1.00;;;;;;5074292;28;20055;-68
2022/04/07 05:04:51;;;;;;;0.10;0.10;;;8.70;1.00;;;;;;5074331;28;20061;-68
2022/04/07 05:07:17;;;;;;;0.50;0.50;;;8.60;1.00;;;;;;5077470;28;20098;-69
2022/04/07 05:09:43;;;;;;;0.28;0.28;;;8.60;1.00;;;;;;5077760;28;20047;-69
2022/04/07 05:12:09;;;;;;;1.30;0.30;;;8.60;1.00;;;;;;5077757;28;20445;-69
2022/04/07 05:14:34;;;;;;;0.43;0.43;;;8.60;1.00;;;;;;5077331;28;20502;-69
2022/04/07 05:17:00;;;;;;;0.10;0.10;;;8.70;1.00;;;;;;5077498;28;20511;-69
2022/04/07 05:19:27;;;;;;;0.17;0.17;;;8.70;1.00;;;;;;5077116;28;20093;-68
2022/04/07 05:21:53;;;;;;;0.22;0.22;;;8.70;1.00;;;;;;5077036;28;20063;-68
2022/04/07 05:24:19;;;;;;;0.75;0.75;;;8.70;1.00;;;;;;5070573;28;20755;-69
2022/04/07 05:26:46;;;;;;;0.10;0.10;;;8.70;1.00;;;;;;5076359;28;20041;-68
2022/04/07 05:29:12;;;;;;;0.30;0.30;;;8.70;1.00;;;;;;5072541;28;20044;-68
2022/04/07 05:31:39;;;;;;;0.20;0.20;;;8.70;1.00;;;;;;5060760;28;20036;-69
2022/04/07 05:34:05;;;;;;;0.28;0.28;;;8.80;1.00;;;;;;5072020;28;20060;-68
2022/04/07 05:36:31;;;;;;;0.10;0.10;;;8.80;1.00;;;;;;5066676;28;20037;-69
2022/04/07 05:38:57;;;;;;;0.10;0.10;;;8.80;1.00;;;;;;5075988;28;20036;-68
2022/04/07 05:41:23;;;;;;;0.28;0.28;;;8.80;1.00;;;;;;5063854;28;20068;-69
2022/04/07 05:43:49;;;;;;;0.43;0.40;;;8.90;1.00;;;;;;5075553;28;20044;-69
2022/04/07 05:46:15;;;;;;;0.20;0.20;;;8.80;1.00;;;;;;5074694;28;20119;-69
2022/04/07 05:48:41;;;;;;;0.43;0.43;;;8.90;1.00;;;;;;5076677;28;20162;-68
2022/04/07 05:51:07;;;;;;;0.13;0.13;;;8.90;1.00;;;;;;5076697;28;20079;-68
2022/04/07 05:53:32;;;;;;;0.40;0.40;;;8.90;1.00;;;;;;5076882;28;20451;-69
2022/04/07 05:55:58;;;;;;;0.10;0.10;;;8.90;1.00;;;;;;5063171;28;20048;-69
2022/04/07 05:58:25;;;;;;;1.38;0.73;;;8.90;1.00;;;;;;5060632;28;20032;-69
2022/04/07 06:00:51;;;;;;;0.15;0.15;;;9.00;1.00;;;;;;5076319;28;20526;-69
2022/04/07 06:03:17;;;;;;;0.57;0.40;;;9.00;1.00;;;;;;5062917;28;20049;-68
2022/04/07 06:05:43;;;;;;;0.13;0.13;;;9.10;1.00;;;;;;5056508;28;20066;-69
2022/04/07 06:08:09;;;;;;;0.10;0.10;;;9.10;1.00;;;;;;5056254;28;20520;-69
2022/04/07 06:10:36;;;;;;;0.20;0.20;;;9.10;1.00;;;;;;5064244;28;20048;-69
2022/04/07 06:13:02;;;;;;;0.10;0.10;;;9.10;1.00;;;;;;5062547;28;20029;-68
2022/04/07 06:15:29;;;;;;;0.10;0.10;;;9.10;1.00;;;;;;5055819;28;20487;-68
2022/04/07 06:17:55;;;;;;;0.38;0.38;;;9.10;1.00;;;;;;5056385;28;20152;-68
2022/04/07 06:20:21;;;;;;;0.20;0.20;;;9.10;1.00;;;;;;5055915;28;20403;-68
2022/04/07 06:22:47;;;;;;;0.20;0.20;;;9.10;1.00;;;;;;5056304;28;20123;-68
2022/04/07 06:25:13;;;;;;;0.10;0.10;;;9.10;1.00;;;;;;5056198;28;20120;-68
2022/04/07 06:27:42;;;;;;;0.50;0.50;;;9.10;1.00;;;;;;5056036;28;20043;-68
2022/04/07 06:30:10;;;;;;;0.22;0.22;;;9.10;1.00;;;;;;5075845;28;20052;-69
2022/04/07 06:32:37;;;;;;;0.20;0.20;;;9.10;1.00;;;;;;5076255;28;20568;-69
2022/04/07 06:35:04;;;;;;;0.00;0.00;;;9.20;1.00;;;;;;5076070;28;20044;-70
2022/04/07 06:37:30;;;;;;;0.17;0.17;;;9.30;1.00;;;;;;5076061;28;20090;-70
2022/04/07 06:40:03;;;;;;;0.10;0.10;;;9.30;1.00;;;;;;5070354;28;20417;-72
2022/04/07 06:42:29;;;;;;;0.28;0.28;;;9.40;1.00;;;;;;5059135;28;20047;-69
2022/04/07 06:44:55;;;;;;;1.55;0.82;;;9.40;1.00;;;;;;5058629;28;20079;-69
2022/04/07 06:47:22;;;;;;;0.20;0.20;;;9.50;1.00;;;;;;5075761;28;20483;-69
2022/04/07 06:49:51;;;;;;;1.08;0.90;;;9.60;1.00;;;;;;5075779;28;20044;-69
2022/04/07 06:52:18;;;;;;;0.20;0.20;;;9.60;1.00;;;;;;5066879;28;20033;-69
2022/04/07 06:54:44;;;;;;;0.22;0.22;;;9.70;1.00;;;;;;5055653;28;20032;-69
2022/04/07 06:57:10;;;;;;;0.10;0.10;;;9.80;1.00;;;;;;5055149;28;20107;-69
2022/04/07 06:59:36;;;;;;;0.20;0.20;;;9.90;1.00;;;;;;5055637;28;20037;-69
2022/04/07 07:02:02;;;;;;;0.20;0.20;;;10.10;1.00;;;;;;5055398;28;20039;-70
2022/04/07 07:04:32;;;;;;;0.10;0.10;;;10.20;1.00;;;;;;5056032;28;20037;-69
2022/04/07 07:06:58;;;;;;;0.10;0.10;;;10.20;1.00;;;;;;5055789;28;20037;-70
2022/04/07 07:09:25;;;;;;;0.25;0.25;;;10.30;1.00;;;;;;5055711;28;20032;-69
2022/04/07 07:11:51;;;;;;;0.30;0.30;;;10.40;1.00;;;;;;5055601;28;20040;-69
2022/04/07 07:14:17;;;;;;;0.10;0.10;;;10.50;1.00;;;;;;5054437;28;20054;-70
2022/04/07 07:16:43;;;;;;;0.10;0.10;;;10.70;1.00;;;;;;5055100;28;20041;-70
2022/04/07 07:19:10;;;;;;;0.10;0.10;;;10.50;1.00;;;;;;5055219;28;20051;-69
2022/04/07 07:21:36;;;;;;;0.10;0.10;;;10.70;1.00;;;;;;5055440;28;20506;-70
2022/04/07 07:24:02;;;;;;;0.85;0.85;;;10.70;1.00;;;;;;5055428;28;20537;-69
2022/04/07 07:26:28;;;;;;;0.60;0.50;;;10.80;1.00;;;;;;5055290;28;20049;-70
2022/04/07 07:28:54;;;;;;;0.10;0.10;;;10.90;1.00;;;;;;5054661;28;20066;-70
2022/04/07 07:31:20;;;;;;;0.10;0.10;;;11.10;1.00;;;;;;5055390;28;20554;-70
2022/04/07 07:33:46;;;;;;;0.10;0.10;;;11.10;1.00;;;;;;5055289;28;20036;-70
2022/04/07 07:36:12;;;;;;;0.17;0.17;;;11.20;1.00;;;;;;5054824;28;20084;-70
2022/04/07 07:38:37;;;;;;;0.20;0.20;;;11.30;1.00;;;;;;5055171;28;20068;-70
2022/04/07 07:41:03;;;;;;;0.10;0.10;;;11.30;1.00;;;;;;5054989;28;20083;-70
2022/04/07 07:43:29;;;;;;;0.10;0.10;;;11.30;1.00;;;;;;5054812;28;20028;-70
2022/04/07 07:45:55;;;;;;;0.10;0.10;;;11.30;1.00;;;;;;5054771;28;20041;-70
2022/04/07 07:48:28;;;;;;;0.32;0.20;;;11.60;1.00;;;;;;5054697;28;20033;-70
2022/04/07 07:50:55;;;;;;;0.13;0.13;;;11.60;1.00;;;;;;5054870;28;20047;-70
2022/04/07 07:53:21;;;;;;;0.10;0.10;;;11.60;1.00;;;;;;5054960;28;20554;-70
2022/04/07 07:55:49;;;;;;;0.10;0.10;;;11.70;1.00;;;;;;5054567;28;20049;-70
2022/04/07 07:58:15;;;;;;;0.20;0.20;;;11.80;1.00;;;;;;5054969;28;20033;-70
2022/04/07 08:00:41;;;;;;;0.30;0.30;;;11.80;1.00;;;;;;5054828;28;20521;-70
2022/04/07 08:03:07;;;;;;;0.30;0.30;;;11.90;1.00;;;;;;5054447;28;20084;-70
2022/04/07 08:05:33;;;;;;;0.30;0.30;;;12.10;1.00;;;;;;5054482;28;20079;-70
2022/04/07 08:07:59;;;;;;;0.38;0.30;;;12.10;1.00;;;;;;5054659;28;20051;-70
2022/04/07 08:10:25;;;;;;;0.30;0.30;;;12.30;1.00;;;;;;5054643;28;20128;-70
2022/04/07 08:12:51;;;;;;;0.20;0.20;;;12.60;1.00;;;;;;5054928;28;20099;-70
2022/04/07 08:15:17;;;;;;;0.30;0.30;;;12.60;1.00;;;;;;5054168;28;20047;-70
2022/04/07 08:17:43;;;;;;;0.40;0.40;;;12.70;1.00;;;;;;5055122;28;20484;-70
2022/04/07 08:20:09;;;;;;;0.13;0.13;;;12.50;1.00;;;;;;5055080;28;20472;-70
2022/04/07 08:22:35;;;;;;;0.10;0.10;;;12.90;1.00;;;;;;5053346;28;20045;-70
2022/04/07 08:25:01;;;;;;;0.10;0.10;;;12.80;1.00;;;;;;5054632;28;20059;-70
2022/04/07 08:27:27;;;;;;;0.10;0.10;;;12.90;1.00;;;;;;5054546;28;20056;-70
2022/04/07 08:29:53;;;;;;;0.25;0.25;;;13.20;1.00;;;;;;5054719;28;20037;-70
2022/04/07 08:32:19;;;;;;;0.57;0.40;;;13.20;1.00;;;;;;5054512;28;20373;-70
2022/04/07 08:34:45;;;;;;;0.38;0.38;;;13.30;1.00;;;;;;5054882;28;20029;-70
2022/04/07 08:37:11;;;;;;;0.10;0.10;;;13.40;1.00;;;;;;5054341;28;20055;-70
2022/04/07 08:39:37;;;;;;;0.10;0.10;;;13.30;1.00;;;;;;5054090;28;20029;-70
2022/04/07 08:42:05;;;;;;;0.13;0.13;;;13.50;1.00;;;;;;5058464;28;20037;-70
2022/04/07 08:44:32;;;;;;;0.13;0.13;;;13.30;1.00;;;;;;5058044;28;20037;-70
2022/04/07 08:46:59;;;;;;;0.10;0.10;;;13.40;1.00;;;;;;5058129;28;20044;-70
2022/04/07 08:49:28;;;;;;;0.10;0.10;;;13.40;1.00;;;;;;5058769;28;20064;-70
2022/04/07 08:51:54;;;;;;;0.10;0.10;;;13.60;1.00;;;;;;5058370;28;20041;-70
2022/04/07 08:54:21;;;;;;;0.10;0.10;;;13.70;1.00;;;;;;5058265;28;20086;-70
2022/04/07 08:56:48;;;;;;;0.10;0.10;;;13.70;1.00;;;;;;5058720;28;20095;-70
2022/04/07 08:59:14;;;;;;;0.10;0.10;;;13.70;1.00;;;;;;5058534;28;20041;-70
2022/04/07 09:01:40;;;;;;;0.20;0.20;;;13.50;1.00;;;;;;5058163;28;20041;-70
2022/04/07 09:04:06;;;;;;;0.20;0.20;;;13.10;1.00;;;;;;5058466;28;20376;-70
2022/04/07 09:06:35;;;;;;;0.10;0.10;;;13.50;1.00;;;;;;5057446;28;20041;-70
2022/04/07 09:09:14;;;;;;;2.20;0.93;;;13.50;1.00;;;;;;5057731;28;20041;-70
2022/04/07 09:11:40;;;;;;;0.17;0.17;;;13.90;1.00;;;;;;5057226;28;20033;-70
2022/04/07 09:14:10;;;;;;;0.13;0.13;;;13.90;1.00;;;;;;5057743;28;20045;-70
2022/04/07 09:16:38;;;;;;;0.10;0.10;;;13.50;1.00;;;;;;5057531;28;20045;-70
2022/04/07 09:19:04;;;;;;;0.10;0.10;;;13.40;1.00;;;;;;5056923;28;20033;-70
2022/04/07 09:21:34;;;;;;;0.45;0.45;;;13.50;1.00;;;;;;5057516;28;20041;-70
2022/04/07 09:24:05;;;;;;;0.10;0.10;;;13.60;1.00;;;;;;5057558;28;20067;-70
2022/04/07 09:26:33;;;;;;;1.50;0.22;;;13.80;1.00;;;;;;5057414;28;20260;-70
2022/04/07 09:29:08;;;;;;;0.10;0.10;;;14.00;1.00;;;;;;5056862;28;20048;-70
2022/04/07 09:31:40;;;;;;;0.10;0.10;;;13.70;1.00;;;;;;5056978;28;20039;-70
2022/04/07 09:34:07;;;;;;;0.30;0.30;;;13.80;1.00;;;;;;5057310;28;20040;-70
2022/04/07 09:36:33;;;;;;;0.10;0.10;;;14.00;1.00;;;;;;5057121;28;20045;-70
2022/04/07 09:39:00;;;;;;;0.10;0.10;;;14.00;1.00;;;;;;5060164;28;20044;-72
2022/04/07 09:41:31;;;;;;;0.77;0.30;;;13.70;1.00;;;;;;5075195;28;20033;-69
2022/04/07 09:43:58;;;;;;;0.20;0.20;;;13.90;1.00;;;;;;5076697;28;20040;-70
2022/04/07 09:46:27;;;;;;;0.10;0.10;;;14.30;1.00;;;;;;5076969;28;20037;-70
2022/04/07 09:49:02;;;;;;;0.32;0.32;;;14.00;1.00;;;;;;5076948;28;20576;-70
2022/04/07 09:51:28;;;;;;;0.20;0.20;;;13.90;1.00;;;;;;5076531;28;20040;-69
2022/04/07 09:53:55;;;;;;;0.40;0.40;;;14.00;1.00;;;;;;5076532;28;20040;-70
2022/04/07 09:56:25;;;;;;;0.40;0.40;;;14.10;1.00;;;;;;5065498;28;20052;-69
2022/04/07 09:58:53;;;;;;;0.45;0.40;;;14.40;1.00;;;;;;5056431;28;20372;-69
2022/04/07 10:01:19;;;;;;;0.30;0.30;;;14.10;1.00;;;;;;5056144;28;20200;-69
2022/04/07 10:03:47;;;;;;;0.30;0.30;;;14.10;1.00;;;;;;5056547;28;20056;-69
2022/04/07 10:06:15;;;;;;;0.30;0.30;;;14.10;1.00;;;;;;5056658;28;20041;-69
2022/04/07 10:08:42;;;;;;;0.10;0.10;;;14.30;1.00;;;;;;5057791;28;20044;-69
2022/04/07 10:11:09;;;;;;;0.10;0.10;;;14.50;1.00;;;;;;5063713;28;20036;-69
2022/04/07 10:13:37;;;;;;;0.28;0.28;;;14.50;1.00;;;;;;5066991;28;20527;-69
2022/04/07 10:16:04;;;;;;;0.10;0.10;;;14.70;1.00;;;;;;5073838;28;20502;-69
2022/04/07 10:18:56;;;;;;;0.10;0.10;;;14.40;1.00;;;;;;5075629;28;20174;-69
2022/04/07 10:21:48;;;;;;;2.17;1.27;;;14.50;1.00;;;;;;5071559;28;20047;-69
2022/04/07 10:24:29;;;;;;;0.30;0.20;;;14.70;1.00;;;;;;5073868;28;20062;-69
2022/04/07 10:26:58;;;;;;;;;;;15.40;1.00;;;;;;5075684;28;20032;-71
2022/04/07 10:29:24;;;;;;;0.50;0.50;;;15.40;1.00;;;;;;5073631;28;19991;-70
2022/04/07 10:32:11;;;;;;;0.10;0.10;;;15.60;1.00;;;;;;5067113;28;20411;-69
2022/04/07 10:34:52;;;;;;;0.40;0.40;;;15.40;1.00;;;;;;5054899;28;20033;-69
2022/04/07 10:37:49;;;;;;;0.25;0.20;;;15.50;1.00;;;;;;5061920;28;20048;-69
2022/04/07 10:40:34;;;;;;;0.10;0.10;;;16.00;1.00;;;;;;5057129;28;20365;-70
2022/04/07 10:43:22;;;;;;;0.73;0.73;;;16.20;1.00;;;;;;5056175;28;20040;-69
2022/04/07 10:45:50;;;;;;;0.20;0.20;;;15.60;1.00;;;;;;5054931;28;20037;-70
2022/04/07 10:48:30;;;;;;;3.42;0.32;;;15.70;1.00;;;;;;5055593;28;20573;-70
2022/04/07 10:51:09;;;;;;;0.43;0.43;;;15.80;1.00;;;;;;5053584;28;20090;-70
2022/04/07 10:53:52;;;;;;;0.52;0.40;;;15.60;1.00;;;;;;5056098;28;20043;-70
2022/04/07 10:56:34;;;;;;;0.10;0.10;;;15.40;1.00;;;;;;5055378;28;20048;-69
2022/04/07 10:59:22;;;;;;;0.30;0.30;;;15.40;1.00;;;;;;5055455;28;20044;-69
2022/04/07 11:01:52;;;;;;;0.10;0.10;;;15.40;1.00;;;;;;5054876;28;20037;-74
2022/04/07 11:04:18;;;;;;;0.20;0.20;;;15.10;1.00;;;;;;5054751;28;20033;-70
2022/04/07 11:07:18;;;;;;;0.15;0.15;;;14.80;1.00;;;;;;5055193;28;20380;-70
2022/04/07 11:09:47;;;;;;;0.10;0.10;;;14.80;1.00;;;;;;5032589;28;20064;-70
2022/04/07 11:12:28;;;;;;;0.17;0.17;;;15.00;1.00;;;;;;5055889;28;20040;-70
2022/04/07 11:15:03;;;;;;;0.22;0.22;;;14.80;1.00;;;;;;5054865;28;20048;-70
2022/04/07 11:17:35;;;;;;;0.30;0.30;;;14.50;1.00;;;;;;5055235;28;20045;-70
2022/04/07 11:20:16;;;;;;;0.10;0.10;;;14.30;1.00;;;;;;5055097;28;20119;-70
2022/04/07 11:22:53;;;;;;;0.30;0.30;;;14.20;1.00;;;;;;5055182;28;20041;-70
2022/04/07 11:25:32;;;;;;;0.20;0.20;;;14.10;1.00;;;;;;5055121;28;20041;-70
2022/04/07 11:28:10;;;;;;;0.10;0.10;;;14.10;1.00;;;;;;5055197;28;20068;-70
2022/04/07 11:30:49;;;;;;;0.10;0.10;;;14.20;1.00;;;;;;5054575;28;20071;-70
2022/04/07 11:33:25;;;;;;;0.10;0.10;;;14.20;1.00;;;;;;5055147;28;20049;-70
2022/04/07 11:36:00;;;;;;;0.10;0.10;;;14.30;1.00;;;;;;5054962;28;20051;-70
2022/04/07 11:38:30;;;;;;;0.20;0.20;;;14.20;1.00;;;;;;5055482;28;20499;-70
2022/04/07 11:41:16;;;;;;;0.10;0.10;;;14.20;1.00;;;;;;5054786;28;20043;-70
2022/04/07 11:43:44;;;;;;;0.10;0.10;;;14.20;1.00;;;;;;5054702;28;20037;-70
2022/04/07 11:46:13;;;;;;;0.20;0.20;;;14.30;1.00;;;;;;5054409;28;20147;-70
2022/04/07 11:48:40;;;;;;;0.45;0.45;;;14.40;1.00;;;;;;5054485;28;20443;-70
2022/04/07 11:51:20;;;;;;;0.10;0.10;;;14.50;1.00;;;;;;5054582;28;20040;-70
2022/04/07 11:53:54;;;;;;;0.10;0.10;;;14.60;1.00;;;;;;5054492;28;20045;-70
2022/04/07 11:56:26;;;;;;;0.20;0.20;;;14.80;1.00;;;;;;5054252;28;20082;-70
2022/04/07 11:58:56;;;;;;;0.20;0.20;;;15.10;1.00;;;;;;5054057;28;20033;-70
2022/04/07 12:01:23;;;;;;;0.10;0.10;;;15.10;1.00;;;;;;5054390;28;20037;-70
2022/04/07 12:03:58;;;;;;;0.20;0.20;;;15.20;1.00;;;;;;5054332;28;20057;-70
2022/04/07 12:06:28;;;;;;;0.65;0.65;;;15.60;1.00;;;;;;5054566;28;20043;-70
2022/04/07 12:08:57;;;;;;;0.27;0.27;;;15.90;1.00;;;;;;5054486;28;20128;-70
2022/04/07 12:11:27;;;;;;;0.17;0.17;;;15.50;1.00;;;;;;5054515;28;20045;-70
2022/04/07 12:13:56;;;;;;;0.65;0.52;;;15.60;1.00;;;;;;5053853;28;20048;-70
2022/04/07 12:16:25;;;;;;;0.10;0.10;;;15.40;1.00;;;;;;5053165;28;20369;-70
2022/04/07 12:18:54;;;;;;;0.30;0.30;;;15.10;1.00;;;;;;5054300;28;20044;-69
2022/04/07 12:21:20;;;;;;;0.20;0.20;;;15.10;1.00;;;;;;5054112;28;20051;-69
2022/04/07 12:23:47;;;;;;;0.10;0.10;;;15.00;1.00;;;;;;5052491;28;20108;-69
2022/04/07 12:26:13;;;;;;;0.10;0.10;;;15.00;1.00;;;;;;5052157;28;20037;-69
2022/04/07 12:28:40;;;;;;;0.28;0.28;;;15.00;1.00;;;;;;5053979;28;20475;-69
2022/04/07 12:31:11;;;;;;;0.30;0.30;;;15.10;1.00;;;;;;5053913;28;20037;-69
2022/04/07 12:33:41;;;;;;;0.22;0.22;;;15.20;1.00;;;;;;5054160;28;20075;-69
2022/04/07 12:36:32;;;;;;;0.20;0.20;;;15.40;1.00;;;;;;5056923;28;20045;-69
2022/04/07 12:38:59;;;;;;;0.10;0.10;;;15.60;1.00;;;;;;5057522;28;20047;-69
2022/04/07 12:41:43;;;;;;;0.10;0.10;;;15.90;1.00;;;;;;5053757;28;20060;-69
2022/04/07 12:44:11;;;;;;;0.20;0.20;;;16.10;1.00;;;;;;5053668;28;20037;-69
2022/04/07 12:46:45;;;;;;;0.13;0.13;;;16.30;1.00;;;;;;5054170;28;20044;-69
2022/04/07 12:49:11;;;;;;;0.10;0.10;;;16.50;1.00;;;;;;5054324;28;20503;-72
2022/04/07 12:51:39;;;;;;;0.20;0.20;;;16.60;1.00;;;;;;5053801;28;20119;-70
2022/04/07 12:54:15;;;;;;;0.55;0.55;;;16.90;1.00;;;;;;5061204;28;20068;-70
2022/04/07 12:56:42;;;;;;;0.20;0.20;;;16.90;1.00;;;;;;5056779;28;20052;-72
2022/04/07 12:59:14;;;;;;;0.30;0.30;;;16.90;1.00;;;;;;5053689;28;20090;-69
2022/04/07 13:01:48;;;;;;;0.28;0.28;;;17.00;1.00;;;;;;5053322;28;20033;-70
2022/04/07 13:04:17;;;;;;;3.08;1.50;;;16.80;1.00;;;;;;5053472;28;20053;-70
2022/04/07 13:06:43;;;;;;;0.52;0.52;;;16.70;1.00;;;;;;5053861;28;20041;-70
2022/04/07 13:09:08;;;;;;;0.60;0.30;;;16.50;1.00;;;;;;5054507;28;20037;-70